Time;durP1;ratioP1;P1;durP2;ratioP2;P2;SDS_P1;SDS_P2;PMS_P1;PMS_P2;Temp;Humidity;BMP_temperature;BMP_pressure;BME280_temperature;BME280_humidity;BME280_pressure;Samples;Min_cycle;Max_cycle;Signal;HPM_P1;HPM_P2
2023/12/09 00:00:16;;;;;;;6.80;2.30;;;9.70;70.80;;;;;;5004535;28;20046;-91
2023/12/09 00:02:41;;;;;;;10.75;2.28;;;9.70;70.80;;;;;;5007589;28;20045;-91
2023/12/09 00:05:09;;;;;;;9.48;3.33;;;9.70;70.80;;;;;;4983538;28;20064;-90
2023/12/09 00:07:37;;;;;;;7.35;2.13;;;9.70;70.80;;;;;;5005489;28;20033;-88
2023/12/09 00:10:04;;;;;;;11.15;2.17;;;9.70;70.80;;;;;;5011208;28;20034;-94
2023/12/09 00:12:33;;;;;;;6.80;1.52;;;9.70;70.80;;;;;;5011247;28;20117;-94
2023/12/09 00:14:59;;;;;;;8.52;2.03;;;9.70;70.80;;;;;;5009155;28;20053;-93
2023/12/09 00:17:26;;;;;;;6.80;1.92;;;9.70;70.80;;;;;;5011817;28;20042;-92
2023/12/09 00:19:52;;;;;;;6.75;2.33;;;9.70;70.80;;;;;;5010365;28;20173;-93
2023/12/09 00:22:18;;;;;;;7.25;1.95;;;9.70;70.80;;;;;;5016798;28;20121;-92
2023/12/09 00:24:47;;;;;;;8.50;2.45;;;9.80;71.00;;;;;;5015507;28;20018;-94
2023/12/09 00:27:13;;;;;;;8.02;1.85;;;9.80;71.00;;;;;;5014537;28;20430;-96
2023/12/09 00:29:40;;;;;;;6.47;1.73;;;9.70;70.90;;;;;;5014203;28;20025;-96
2023/12/09 00:32:07;;;;;;;6.90;1.75;;;9.80;71.10;;;;;;4998625;28;20038;-95
2023/12/09 00:34:33;;;;;;;6.40;2.10;;;9.80;71.00;;;;;;5001115;28;20479;-95
2023/12/09 00:37:00;;;;;;;4.10;1.70;;;9.80;71.10;;;;;;5007487;28;20029;-96
2023/12/09 00:39:26;;;;;;;7.65;1.83;;;9.80;71.10;;;;;;5015679;28;20037;-93
2023/12/09 00:41:52;;;;;;;8.60;2.05;;;9.80;71.10;;;;;;5019808;28;20048;-94
2023/12/09 00:44:20;;;;;;;8.00;1.73;;;9.70;70.90;;;;;;5000047;28;20057;-95
2023/12/09 00:46:48;;;;;;;6.97;1.95;;;9.80;71.10;;;;;;5004543;28;20049;-94
2023/12/09 00:49:23;;;;;;;9.60;2.00;;;9.80;71.20;;;;;;5013187;28;20037;-94
2023/12/09 00:51:57;;;;;;;12.95;3.15;;;9.80;71.10;;;;;;5013636;28;20096;-95
2023/12/09 00:54:25;;;;;;;8.38;2.33;;;9.80;71.10;;;;;;5015001;28;20492;-96
2023/12/09 00:56:51;;;;;;;5.55;1.95;;;9.80;71.40;;;;;;4979712;28;20442;-92
2023/12/09 00:59:23;;;;;;;5.35;1.63;;;9.80;71.20;;;;;;4992291;28;20376;-90
2023/12/09 01:01:49;;;;;;;7.07;1.70;;;9.80;71.20;;;;;;5010734;28;20044;-89
2023/12/09 01:04:16;;;;;;;6.65;2.13;;;9.80;71.20;;;;;;5021584;28;20037;-91
2023/12/09 01:06:42;;;;;;;9.57;2.70;;;9.80;71.20;;;;;;5005971;28;20068;-90
2023/12/09 01:09:08;;;;;;;7.38;2.38;;;9.80;71.30;;;;;;4991242;28;20061;-90
2023/12/09 01:11:35;;;;;;;7.72;2.33;;;9.80;71.30;;;;;;5009345;28;20030;-94
2023/12/09 01:14:03;;;;;;;6.28;1.88;;;9.80;71.30;;;;;;5007691;28;20033;-94
2023/12/09 01:16:29;;;;;;;5.85;1.65;;;9.80;71.30;;;;;;4992816;28;20030;-92
2023/12/09 01:18:55;;;;;;;10.45;2.55;;;9.80;71.40;;;;;;5016232;28;20025;-94
2023/12/09 01:21:28;;;;;;;4.28;1.67;;;9.80;71.40;;;;;;5011104;28;20040;-92
2023/12/09 01:23:55;;;;;;;7.95;1.60;;;9.80;71.40;;;;;;4991659;28;20030;-94
2023/12/09 01:26:23;;;;;;;5.75;1.95;;;9.80;71.40;;;;;;5006946;28;20049;-94
2023/12/09 01:28:49;;;;;;;5.82;1.92;;;9.90;71.60;;;;;;5011780;28;20038;-95
2023/12/09 01:31:16;;;;;;;6.80;1.67;;;9.90;71.60;;;;;;4995255;28;20177;-94
2023/12/09 01:33:42;;;;;;;6.43;1.75;;;9.90;71.60;;;;;;5011901;28;20057;-94
2023/12/09 01:36:10;;;;;;;5.18;1.63;;;9.90;71.70;;;;;;5001121;28;20036;-95
2023/12/09 01:38:37;;;;;;;8.45;1.83;;;9.90;71.80;;;;;;4993853;28;20041;-94
2023/12/09 01:41:03;;;;;;;4.93;1.85;;;9.90;71.80;;;;;;5014538;28;21074;-94
2023/12/09 01:43:29;;;;;;;6.85;1.83;;;9.90;71.80;;;;;;5014313;28;20055;-96
2023/12/09 01:46:02;;;;;;;5.45;1.50;;;9.90;71.80;;;;;;5009874;28;20112;-93
2023/12/09 01:48:28;;;;;;;8.45;1.73;;;9.90;71.90;;;;;;4995398;28;20030;-91
2023/12/09 01:50:58;;;;;;;5.10;1.92;;;10.00;72.10;;;;;;5014072;28;20053;-91
2023/12/09 01:53:25;;;;;;;3.17;1.30;;;10.00;72.10;;;;;;5012923;28;20244;-91
2023/12/09 01:55:57;;;;;;;5.47;1.50;;;10.00;72.10;;;;;;5018213;28;20033;-90
2023/12/09 01:58:26;;;;;;;4.82;1.92;;;10.00;72.20;;;;;;5010426;28;20602;-91
2023/12/09 02:00:53;;;;;;;5.43;1.35;;;10.00;72.20;;;;;;5009588;28;20050;-89
2023/12/09 02:03:21;;;;;;;4.38;1.23;;;10.00;72.30;;;;;;5013502;28;20040;-90
2023/12/09 02:05:49;;;;;;;3.30;1.15;;;10.00;72.30;;;;;;5009687;28;20041;-91
2023/12/09 02:08:18;;;;;;;4.38;1.20;;;10.00;71.90;;;;;;5007636;28;20041;-90
2023/12/09 02:10:48;;;;;;;6.85;1.65;;;10.10;72.50;;;;;;5010138;28;20041;-91
2023/12/09 02:13:23;;;;;;;4.88;0.90;;;10.00;72.40;;;;;;5004743;28;20050;-90
2023/12/09 02:16:06;;;;;;;4.45;1.35;;;10.10;72.60;;;;;;5012102;28;20022;-90
2023/12/09 02:18:37;;;;;;;4.97;1.38;;;10.10;72.70;;;;;;5007412;28;20026;-94
2023/12/09 02:21:05;;;;;;;4.90;1.35;;;10.10;72.70;;;;;;5015228;28;20112;-94
2023/12/09 02:23:37;;;;;;;4.82;1.42;;;10.10;72.70;;;;;;5028002;28;20021;-94
2023/12/09 02:26:26;;;;;;;2.13;1.00;;;10.10;72.80;;;;;;5032420;28;20021;-96
2023/12/09 02:29:01;;;;;;;6.63;1.63;;;10.10;72.90;;;;;;5004403;28;20113;-89
2023/12/09 02:31:33;;;;;;;3.95;0.70;;;10.10;72.90;;;;;;5009382;28;20029;-91
2023/12/09 02:34:03;;;;;;;4.60;1.30;;;10.10;72.90;;;;;;4996416;28;20054;-94
2023/12/09 02:36:31;;;;;;;2.63;0.80;;;10.10;72.90;;;;;;5015144;28;20259;-93
2023/12/09 02:38:59;;;;;;;4.30;1.15;;;10.20;73.10;;;;;;5015572;28;20061;-90
2023/12/09 02:41:27;;;;;;;5.57;1.52;;;10.20;73.10;;;;;;5025641;28;20022;-95
2023/12/09 02:43:54;;;;;;;2.70;0.90;;;10.20;73.20;;;;;;5000256;28;20066;-93
2023/12/09 02:46:20;;;;;;;5.13;1.45;;;10.20;73.20;;;;;;4997374;28;20200;-92
2023/12/09 02:48:46;;;;;;;5.50;1.63;;;10.20;73.20;;;;;;5002821;28;20018;-91
2023/12/09 02:51:15;;;;;;;3.55;1.30;;;10.20;73.30;;;;;;5012098;28;20053;-90
2023/12/09 02:53:41;;;;;;;4.28;1.20;;;10.20;73.30;;;;;;5012077;28;20028;-92
2023/12/09 02:56:10;;;;;;;6.97;1.40;;;10.20;73.40;;;;;;5012183;28;20030;-90
2023/12/09 02:58:36;;;;;;;2.90;0.85;;;10.30;73.60;;;;;;5011860;28;20029;-90
2023/12/09 03:01:02;;;;;;;2.95;0.77;;;10.30;73.60;;;;;;5010687;28;20030;-90
2023/12/09 03:03:29;;;;;;;3.03;0.82;;;10.20;73.50;;;;;;5009391;28;20037;-90
2023/12/09 03:05:55;;;;;;;2.72;0.80;;;10.20;73.50;;;;;;5006836;28;20034;-88
2023/12/09 03:08:31;;;;;;;3.67;1.40;;;10.30;73.70;;;;;;4977493;28;20117;-87
2023/12/09 03:10:59;;;;;;;4.25;1.05;;;10.30;73.80;;;;;;5009059;28;20079;-89
2023/12/09 03:13:26;;;;;;;3.13;1.02;;;10.30;73.70;;;;;;4990422;28;20484;-91
2023/12/09 03:15:55;;;;;;;1.60;0.80;;;10.30;73.80;;;;;;4986645;28;20065;-88
2023/12/09 03:18:23;;;;;;;2.58;0.88;;;10.30;73.80;;;;;;5028446;28;20085;-95
2023/12/09 03:20:51;;;;;;;4.53;0.93;;;10.30;73.80;;;;;;5016221;28;20022;-95
2023/12/09 03:23:17;;;;;;;3.15;1.10;;;10.40;74.00;;;;;;5032414;28;20038;-95
2023/12/09 03:25:43;;;;;;;1.48;0.60;;;10.40;74.10;;;;;;5037957;28;20183;-96
2023/12/09 03:28:09;;;;;;;2.80;0.88;;;10.40;74.10;;;;;;5034904;28;20032;-88
2023/12/09 03:30:38;;;;;;;2.30;0.60;;;10.40;74.10;;;;;;5031543;28;20037;-91
2023/12/09 03:33:05;;;;;;;1.52;0.55;;;10.40;74.10;;;;;;5011626;28;20041;-92
2023/12/09 03:35:31;;;;;;;1.88;0.60;;;10.40;74.10;;;;;;5003740;28;20096;-93
2023/12/09 03:37:58;;;;;;;1.23;0.50;;;10.40;74.20;;;;;;5013081;28;20068;-95
2023/12/09 03:40:25;;;;;;;2.38;0.52;;;10.40;74.20;;;;;;5018460;28;20051;-96
2023/12/09 03:42:52;;;;;;;3.13;0.52;;;10.50;74.40;;;;;;5025449;28;20042;-96
2023/12/09 03:45:20;;;;;;;1.80;0.52;;;10.50;74.40;;;;;;5002645;28;20035;-92
2023/12/09 03:47:46;;;;;;;1.95;0.68;;;10.40;74.30;;;;;;5013703;28;20026;-94
2023/12/09 03:50:12;;;;;;;1.20;0.40;;;10.40;74.30;;;;;;5011977;28;20161;-95
2023/12/09 03:52:38;;;;;;;2.03;0.60;;;10.50;74.50;;;;;;4986267;28;20027;-93
2023/12/09 03:55:06;;;;;;;3.08;0.60;;;10.50;74.60;;;;;;4993296;28;20536;-88
2023/12/09 03:57:33;;;;;;;1.75;0.63;;;10.50;74.60;;;;;;4978040;28;20022;-92
2023/12/09 03:59:59;;;;;;;1.05;0.75;;;10.50;74.60;;;;;;4996129;28;20053;-93
2023/12/09 04:02:25;;;;;;;0.52;0.38;;;10.50;74.60;;;;;;4995974;28;20038;-93
2023/12/09 04:04:51;;;;;;;1.15;0.50;;;10.60;74.80;;;;;;4979098;28;20444;-94
2023/12/09 04:07:17;;;;;;;2.45;0.50;;;10.50;74.70;;;;;;4994045;28;20042;-93
2023/12/09 04:09:43;;;;;;;1.40;0.60;;;10.60;74.90;;;;;;4995486;28;20045;-93
2023/12/09 04:12:09;;;;;;;1.55;0.50;;;10.60;74.90;;;;;;4997587;28;20144;-92
2023/12/09 04:14:39;;;;;;;2.38;0.93;;;10.60;74.90;;;;;;4972958;28;20023;-93
2023/12/09 04:17:06;;;;;;;1.35;0.80;;;10.60;74.90;;;;;;4980339;28;20089;-92
2023/12/09 04:19:32;;;;;;;0.68;0.40;;;10.60;74.90;;;;;;4996051;28;20038;-91
2023/12/09 04:22:00;;;;;;;1.83;0.50;;;10.60;74.90;;;;;;4992889;28;20078;-94
2023/12/09 04:24:26;;;;;;;1.35;0.40;;;10.70;75.60;;;;;;4991423;28;20098;-94
2023/12/09 04:26:53;;;;;;;3.03;0.50;;;10.70;75.10;;;;;;4993700;28;20092;-94
2023/12/09 04:29:21;;;;;;;1.52;0.63;;;10.70;75.10;;;;;;4994441;28;20054;-91
2023/12/09 04:31:47;;;;;;;1.13;0.45;;;10.70;75.10;;;;;;4992361;28;20031;-94
2023/12/09 04:34:14;;;;;;;2.08;0.60;;;10.70;75.10;;;;;;4997970;28;20133;-94
2023/12/09 04:36:40;;;;;;;0.60;0.30;;;10.70;75.20;;;;;;5007241;28;20270;-92
2023/12/09 04:39:07;;;;;;;1.42;0.50;;;10.80;75.30;;;;;;4997282;28;20026;-92
2023/12/09 04:41:33;;;;;;;1.58;0.43;;;10.80;75.60;;;;;;5022429;28;20037;-93
2023/12/09 04:43:59;;;;;;;0.80;0.40;;;10.80;75.30;;;;;;5008576;28;20035;-94
2023/12/09 04:46:25;;;;;;;1.85;0.40;;;10.90;75.50;;;;;;4996451;28;20054;-92
2023/12/09 04:48:51;;;;;;;2.10;0.88;;;10.80;75.30;;;;;;5014688;28;21288;-95
2023/12/09 04:51:17;;;;;;;1.05;0.45;;;10.90;75.50;;;;;;5019457;28;20050;-93
2023/12/09 04:53:43;;;;;;;1.50;0.38;;;10.90;75.40;;;;;;5014760;28;20010;-93
2023/12/09 04:56:10;;;;;;;2.22;0.57;;;11.00;75.60;;;;;;5004458;28;20042;-93
2023/12/09 04:58:36;;;;;;;1.17;0.40;;;11.00;75.60;;;;;;4997722;28;20156;-94
2023/12/09 05:01:08;;;;;;;0.73;0.38;;;11.00;75.60;;;;;;4995907;28;20400;-93
2023/12/09 05:03:36;;;;;;;1.17;0.30;;;11.00;75.60;;;;;;5001671;28;20046;-96
2023/12/09 05:06:04;;;;;;;0.40;0.30;;;11.00;75.60;;;;;;4997977;28;20026;-96
2023/12/09 05:08:32;;;;;;;1.60;0.40;;;11.00;75.50;;;;;;5002569;28;20026;-95
2023/12/09 05:10:58;;;;;;;1.25;0.43;;;11.10;75.70;;;;;;4999618;28;20065;-96
2023/12/09 05:13:25;;;;;;;1.17;0.50;;;11.10;75.60;;;;;;5001267;28;20037;-94
2023/12/09 05:15:51;;;;;;;1.30;0.45;;;11.10;75.60;;;;;;4999014;28;20552;-94
2023/12/09 05:18:18;;;;;;;0.90;0.50;;;11.10;75.60;;;;;;4999677;28;20038;-93
2023/12/09 05:20:45;;;;;;;1.55;0.43;;;11.10;75.60;;;;;;5011539;28;20033;-93
2023/12/09 05:23:19;;;;;;;0.60;0.20;;;11.20;75.80;;;;;;5003692;28;20050;-93
2023/12/09 05:25:45;;;;;;;1.55;0.90;;;11.20;75.80;;;;;;5008040;28;20058;-93
2023/12/09 05:28:11;;;;;;;0.85;0.35;;;11.20;75.70;;;;;;5005450;28;20558;-93
2023/12/09 05:30:37;;;;;;;1.23;0.50;;;11.20;75.70;;;;;;4997028;28;20026;-93
2023/12/09 05:33:04;;;;;;;1.27;0.40;;;11.20;75.70;;;;;;4998928;28;20702;-92
2023/12/09 05:35:33;;;;;;;0.30;0.30;;;11.20;75.70;;;;;;4993150;28;20054;-90
2023/12/09 05:38:02;;;;;;;0.73;0.30;;;11.20;75.70;;;;;;4997213;28;20384;-91
2023/12/09 05:40:29;;;;;;;0.95;0.30;;;11.20;75.70;;;;;;4989968;28;20030;-90
2023/12/09 05:42:55;;;;;;;1.30;0.30;;;11.20;75.70;;;;;;4996541;28;20042;-92
2023/12/09 05:45:21;;;;;;;1.15;0.70;;;11.30;75.90;;;;;;4994539;28;20038;-92
2023/12/09 05:47:48;;;;;;;0.70;0.30;;;11.30;75.90;;;;;;5006553;28;20035;-93
2023/12/09 05:50:14;;;;;;;0.90;0.30;;;11.30;75.80;;;;;;4992430;28;20042;-94
2023/12/09 05:52:43;;;;;;;0.40;0.20;;;11.30;75.80;;;;;;4994430;28;20042;-94
2023/12/09 05:55:09;;;;;;;0.20;0.20;;;11.30;75.90;;;;;;4994147;28;20050;-94
2023/12/09 05:57:39;;;;;;;0.77;0.43;;;11.30;75.90;;;;;;4996784;28;20088;-96
2023/12/09 06:00:08;;;;;;;0.30;0.20;;;11.30;75.80;;;;;;4997387;28;20333;-96
2023/12/09 06:02:35;;;;;;;1.35;0.43;;;11.40;76.00;;;;;;4992981;28;20047;-95
2023/12/09 06:05:03;;;;;;;0.55;0.38;;;11.40;76.00;;;;;;4995477;28;20026;-96
2023/12/09 06:07:29;;;;;;;0.65;0.30;;;11.40;75.70;;;;;;4976896;28;20034;-96
2023/12/09 06:09:56;;;;;;;1.40;0.40;;;11.40;76.00;;;;;;4994809;28;20129;-90
2023/12/09 06:12:22;;;;;;;1.58;0.40;;;11.40;76.00;;;;;;4995660;28;20093;-92
2023/12/09 06:14:49;;;;;;;1.08;0.30;;;11.40;76.00;;;;;;4988464;28;20030;-94
2023/12/09 06:17:15;;;;;;;0.73;0.30;;;11.40;76.00;;;;;;4991905;28;20041;-92
2023/12/09 06:19:41;;;;;;;0.90;0.32;;;11.40;76.00;;;;;;4992537;28;20022;-93
2023/12/09 06:22:08;;;;;;;0.20;0.20;;;11.50;76.20;;;;;;4994607;28;20061;-94
2023/12/09 06:24:34;;;;;;;0.20;0.20;;;11.50;76.20;;;;;;4995267;28;20022;-95
2023/12/09 06:27:04;;;;;;;0.30;0.30;;;11.50;76.70;;;;;;4994580;28;20038;-94
2023/12/09 06:29:31;;;;;;;1.27;0.40;;;11.50;76.20;;;;;;4993554;28;20026;-94
2023/12/09 06:32:00;;;;;;;0.82;0.25;;;11.50;76.20;;;;;;4979861;28;20036;-93
2023/12/09 06:34:27;;;;;;;0.32;0.13;;;11.50;76.20;;;;;;4979238;28;20069;-94
2023/12/09 06:36:55;;;;;;;0.85;0.38;;;11.50;76.20;;;;;;4998152;28;20038;-96
2023/12/09 06:39:21;;;;;;;1.55;0.35;;;11.50;76.20;;;;;;4995174;28;20039;-95
2023/12/09 06:41:48;;;;;;;1.23;0.30;;;11.50;76.20;;;;;;4989047;28;20030;-96
2023/12/09 06:44:15;;;;;;;0.73;0.20;;;11.60;76.40;;;;;;5012889;28;20049;-94
2023/12/09 06:46:42;;;;;;;0.10;0.10;;;11.60;76.30;;;;;;4999925;28;20068;-96
2023/12/09 06:49:09;;;;;;;0.35;0.20;;;11.60;76.40;;;;;;5009992;28;20069;-95
2023/12/09 06:51:40;;;;;;;0.40;0.20;;;11.60;76.30;;;;;;4946541;28;1131152;-95
2023/12/09 06:54:07;;;;;;;0.57;0.20;;;11.60;76.30;;;;;;5002033;28;20283;-96
2023/12/09 06:56:34;;;;;;;1.27;0.30;;;11.60;76.30;;;;;;5014303;28;20491;-94
2023/12/09 06:59:02;;;;;;;0.40;0.30;;;11.60;76.30;;;;;;5018987;28;20025;-96
2023/12/09 07:01:29;;;;;;;0.57;0.20;;;11.60;76.30;;;;;;5024718;28;20029;-94
2023/12/09 07:03:57;;;;;;;1.30;0.20;;;11.70;76.50;;;;;;5019339;28;20045;-95
2023/12/09 07:06:25;;;;;;;0.55;0.30;;;11.60;76.30;;;;;;5017471;28;20033;-96
2023/12/09 07:08:54;;;;;;;0.95;0.40;;;11.60;76.40;;;;;;5005511;28;20089;-94
2023/12/09 07:11:21;;;;;;;1.55;0.30;;;11.70;76.60;;;;;;5005906;28;20033;-95
2023/12/09 07:13:48;;;;;;;0.25;0.20;;;11.70;76.60;;;;;;5006108;28;20704;-92
2023/12/09 07:16:18;;;;;;;0.88;0.15;;;11.70;76.70;;;;;;5000112;28;20038;-93
2023/12/09 07:19:09;;;;;;;0.75;0.30;;;11.70;76.70;;;;;;5018997;28;20026;-88
2023/12/09 07:21:40;;;;;;;0.68;0.40;;;11.70;76.80;;;;;;5003245;28;20072;-88
2023/12/09 07:24:06;;;;;;;0.35;0.13;;;11.70;76.80;;;;;;5017238;28;20045;-89
2023/12/09 07:26:35;;;;;;;0.45;0.40;;;11.70;76.80;;;;;;5003691;28;20084;-88
2023/12/09 07:29:05;;;;;;;0.30;0.30;;;11.70;76.80;;;;;;5021540;28;20034;-89
2023/12/09 07:31:32;;;;;;;0.35;0.20;;;11.70;76.90;;;;;;5024872;28;20026;-88
2023/12/09 07:34:01;;;;;;;1.38;0.40;;;11.80;77.10;;;;;;5024050;28;20030;-89
2023/12/09 07:36:29;;;;;;;0.50;0.30;;;11.80;77.10;;;;;;5007387;28;20109;-88
2023/12/09 07:38:56;;;;;;;0.32;0.20;;;11.80;77.10;;;;;;5018362;28;20038;-90
2023/12/09 07:41:22;;;;;;;0.85;0.40;;;11.80;77.20;;;;;;5019069;28;20125;-87
2023/12/09 07:43:52;;;;;;;7.88;1.20;;;11.90;77.40;;;;;;5017785;28;20040;-88
2023/12/09 07:46:19;;;;;;;10.68;1.70;;;11.90;77.90;;;;;;5011949;28;20053;-91
2023/12/09 07:48:48;;;;;;;10.45;1.50;;;11.90;77.50;;;;;;5007198;28;20084;-89
2023/12/09 07:51:14;;;;;;;7.15;1.70;;;11.90;77.50;;;;;;4995855;28;20050;-90
2023/12/09 07:53:40;;;;;;;11.52;2.17;;;11.90;77.60;;;;;;4999289;28;20082;-90
2023/12/09 07:56:06;;;;;;;21.70;4.55;;;11.90;77.70;;;;;;4981063;28;20490;-90
2023/12/09 07:58:33;;;;;;;23.88;6.15;;;11.90;77.80;;;;;;5000053;28;20042;-86
2023/12/09 08:01:01;;;;;;;25.73;5.35;;;12.00;78.40;;;;;;4990085;28;20441;-90
2023/12/09 08:03:31;;;;;;;19.73;4.88;;;12.00;78.50;;;;;;4971922;28;20684;-87
2023/12/09 08:05:57;;;;;;;23.38;5.63;;;12.20;78.90;;;;;;4966817;28;20026;-87
2023/12/09 08:08:23;;;;;;;19.67;3.90;;;12.20;78.80;;;;;;4987781;28;20030;-89
2023/12/09 08:10:49;;;;;;;16.92;3.72;;;12.30;79.00;;;;;;4970178;28;20033;-89
2023/12/09 08:13:15;;;;;;;17.63;3.58;;;12.30;78.90;;;;;;4994331;28;20034;-88
2023/12/09 08:15:41;;;;;;;11.82;2.80;;;12.40;79.10;;;;;;4991622;28;20041;-88
2023/12/09 08:18:07;;;;;;;9.70;2.50;;;12.40;79.20;;;;;;4987089;28;20014;-88
2023/12/09 08:20:34;;;;;;;10.63;2.72;;;12.40;79.20;;;;;;4983719;28;20113;-87
2023/12/09 08:23:00;;;;;;;6.70;2.10;;;12.40;79.20;;;;;;4965172;28;20879;-88
2023/12/09 08:25:26;;;;;;;5.93;1.58;;;12.50;80.00;;;;;;4989359;28;20038;-88
2023/12/09 08:27:52;;;;;;;12.65;2.13;;;12.40;79.30;;;;;;4980252;28;20045;-88
2023/12/09 08:30:19;;;;;;;9.68;1.90;;;12.50;79.60;;;;;;4986891;28;20575;-88
2023/12/09 08:32:46;;;;;;;7.03;1.70;;;12.50;79.60;;;;;;4972143;28;20037;-89
2023/12/09 08:35:14;;;;;;;5.18;1.67;;;12.50;79.60;;;;;;4987532;28;20380;-88
2023/12/09 08:37:42;;;;;;;4.47;1.10;;;12.50;79.70;;;;;;4984628;28;20042;-90
2023/12/09 08:40:11;;;;;;;5.63;1.63;;;12.50;80.30;;;;;;4989279;28;20037;-88
2023/12/09 08:42:39;;;;;;;5.30;1.42;;;12.50;79.80;;;;;;4972472;28;20214;-86
2023/12/09 08:45:08;;;;;;;3.05;1.20;;;12.50;79.80;;;;;;4993764;28;20045;-88
2023/12/09 08:47:36;;;;;;;5.35;1.48;;;12.50;79.90;;;;;;4975099;28;20087;-89
2023/12/09 08:50:08;;;;;;;4.15;0.98;;;12.50;80.00;;;;;;4976365;28;20386;-87
2023/12/09 08:52:35;;;;;;;4.95;1.55;;;12.50;80.10;;;;;;4975571;28;20037;-87
2023/12/09 08:55:03;;;;;;;2.25;0.93;;;12.50;80.10;;;;;;4993671;28;20053;-87
2023/12/09 08:57:29;;;;;;;2.60;0.73;;;12.60;80.40;;;;;;4995595;28;20634;-86
2023/12/09 08:59:55;;;;;;;2.20;0.80;;;12.50;80.30;;;;;;4976960;28;20114;-87
2023/12/09 09:02:24;;;;;;;3.15;0.73;;;12.60;80.50;;;;;;4981163;28;20264;-87
2023/12/09 09:04:54;;;;;;;1.77;0.57;;;12.60;80.60;;;;;;4982043;28;20041;-85
2023/12/09 09:07:24;;;;;;;3.47;0.88;;;12.60;80.60;;;;;;4995707;28;20038;-84
2023/12/09 09:09:52;;;;;;;1.17;0.70;;;12.60;80.70;;;;;;5016030;28;20045;-87
2023/12/09 09:12:21;;;;;;;2.15;0.95;;;12.60;80.70;;;;;;4992385;28;20493;-86
2023/12/09 09:14:48;;;;;;;3.28;0.90;;;12.60;80.70;;;;;;4982510;28;20026;-86
2023/12/09 09:17:16;;;;;;;1.42;0.80;;;12.60;80.70;;;;;;4985781;28;20038;-90
2023/12/09 09:19:42;;;;;;;2.30;0.60;;;12.60;80.70;;;;;;5002562;28;20090;-90
2023/12/09 09:22:08;;;;;;;6.03;0.88;;;12.70;80.90;;;;;;4997644;28;20097;-89
2023/12/09 09:24:34;;;;;;;4.40;1.73;;;12.70;80.90;;;;;;4978332;28;20025;-90
2023/12/09 09:27:00;;;;;;;6.60;1.42;;;12.70;81.00;;;;;;4993262;28;20041;-88
2023/12/09 09:29:27;;;;;;;4.82;2.17;;;12.70;81.00;;;;;;4978331;28;20503;-87
2023/12/09 09:31:54;;;;;;;7.10;1.23;;;12.70;81.00;;;;;;4982110;28;20037;-88
2023/12/09 09:34:21;;;;;;;7.38;1.48;;;12.70;81.10;;;;;;4978895;28;20306;-89
2023/12/09 09:36:48;;;;;;;6.32;1.48;;;12.80;81.40;;;;;;4998142;28;20030;-88
2023/12/09 09:39:14;;;;;;;7.07;1.60;;;12.80;81.40;;;;;;4976606;28;20518;-90
2023/12/09 09:42:03;;;;;;;7.55;1.83;;;12.80;81.40;;;;;;4996196;28;20058;-90
2023/12/09 09:44:37;;;;;;;4.82;1.52;;;12.80;81.50;;;;;;4968785;28;20034;-87
2023/12/09 09:47:06;;;;;;;6.32;1.38;;;12.80;81.40;;;;;;5000907;28;20081;-92
2023/12/09 09:49:36;;;;;;;8.80;2.00;;;12.90;81.60;;;;;;4971737;28;20176;-88
2023/12/09 09:52:09;;;;;;;5.47;1.50;;;12.90;81.70;;;;;;5016416;28;20058;-89
2023/12/09 09:54:39;;;;;;;10.30;2.37;;;12.90;81.70;;;;;;5017794;28;20035;-91
2023/12/09 09:57:10;;;;;;;12.63;3.50;;;12.90;81.70;;;;;;5016654;28;20045;-89
2023/12/09 09:59:38;;;;;;;9.45;1.95;;;13.00;81.90;;;;;;5013023;28;20574;-90
2023/12/09 10:02:07;;;;;;;9.85;2.58;;;13.00;81.90;;;;;;5016359;28;20064;-89
2023/12/09 10:04:34;;;;;;;11.23;2.70;;;13.00;81.90;;;;;;5015782;28;20434;-90
2023/12/09 10:07:01;;;;;;;7.28;2.65;;;13.00;81.90;;;;;;5015752;28;20260;-90
2023/12/09 10:09:27;;;;;;;15.90;3.03;;;13.00;81.90;;;;;;5017065;28;20088;-89
2023/12/09 10:11:54;;;;;;;10.30;2.03;;;13.10;82.00;;;;;;5016355;28;20026;-90
2023/12/09 10:14:23;;;;;;;12.43;3.50;;;13.10;82.00;;;;;;4993545;28;20046;-93
2023/12/09 10:16:53;;;;;;;12.63;3.00;;;13.20;82.20;;;;;;5019956;28;20029;-95
2023/12/09 10:19:20;;;;;;;14.10;3.22;;;13.20;82.10;;;;;;5000569;28;20038;-92
2023/12/09 10:21:46;;;;;;;14.68;3.38;;;13.30;82.20;;;;;;4992778;28;20053;-90
2023/12/09 10:24:13;;;;;;;11.73;2.75;;;13.40;82.20;;;;;;5011857;28;20645;-91
2023/12/09 10:26:41;;;;;;;11.05;2.97;;;13.40;82.10;;;;;;5004897;28;20040;-88
2023/12/09 10:29:08;;;;;;;12.82;3.60;;;13.40;82.00;;;;;;5021342;28;20124;-94
2023/12/09 10:31:35;;;;;;;17.25;4.50;;;13.50;82.00;;;;;;4998326;28;20403;-96
2023/12/09 10:34:03;;;;;;;16.65;3.72;;;13.60;82.10;;;;;;5015701;28;20053;-96
2023/12/09 10:36:37;;;;;;;10.18;2.83;;;13.60;81.90;;;;;;5017305;28;20045;-96
2023/12/09 10:39:05;;;;;;;14.00;3.15;;;13.60;81.80;;;;;;5015321;28;20034;-96
2023/12/09 10:41:32;;;;;;;16.38;3.45;;;13.70;81.90;;;;;;5015155;28;20124;-96
2023/12/09 10:44:02;;;;;;;14.20;3.17;;;13.70;81.80;;;;;;5017835;28;20037;-94
2023/12/09 10:46:29;;;;;;;18.88;3.50;;;13.70;81.70;;;;;;5012097;28;20056;-94
2023/12/09 10:48:56;;;;;;;12.18;2.67;;;13.70;81.60;;;;;;5017462;28;20548;-95
2023/12/09 10:51:23;;;;;;;14.73;3.47;;;13.80;81.60;;;;;;5009992;28;20298;-94
2023/12/09 10:53:49;;;;;;;16.00;4.38;;;13.80;81.50;;;;;;4962609;28;20034;-91
2023/12/09 10:56:16;;;;;;;15.70;3.53;;;13.80;81.40;;;;;;4992179;28;20042;-92
2023/12/09 10:58:45;;;;;;;13.18;3.97;;;13.90;81.40;;;;;;5010709;28;20113;-92
2023/12/09 11:01:15;;;;;;;16.70;3.53;;;13.90;81.20;;;;;;4994366;28;20044;-94
2023/12/09 11:03:42;;;;;;;18.52;5.32;;;14.00;81.20;;;;;;5010624;28;20045;-93
2023/12/09 11:06:11;;;;;;;14.32;3.60;;;14.00;81.00;;;;;;5006402;28;20030;-93
2023/12/09 11:08:41;;;;;;;16.37;4.07;;;14.10;81.00;;;;;;4982488;28;20465;-95
2023/12/09 11:11:15;;;;;;;24.05;4.72;;;14.00;80.80;;;;;;4983535;28;20088;-95
2023/12/09 11:13:46;;;;;;;15.90;3.72;;;14.10;80.80;;;;;;5013374;28;20049;-95
2023/12/09 11:16:19;;;;;;;16.83;4.03;;;14.10;80.80;;;;;;5009893;28;20034;-96
2023/12/09 11:18:54;;;;;;;20.92;4.10;;;14.10;80.60;;;;;;5010334;28;20521;-92
2023/12/09 11:21:31;;;;;;;15.98;5.00;;;14.10;80.50;;;;;;5005156;28;20026;-93
2023/12/09 11:24:04;;;;;;;21.10;4.53;;;14.10;80.40;;;;;;4991406;28;20050;-95
2023/12/09 11:26:35;;;;;;;19.92;4.57;;;14.10;80.30;;;;;;4994429;28;20274;-94
2023/12/09 11:29:06;;;;;;;18.50;4.53;;;14.20;80.30;;;;;;5014332;28;20041;-96
2023/12/09 11:31:46;;;;;;;18.83;5.38;;;14.20;80.20;;;;;;5011309;28;20124;-94
2023/12/09 11:34:20;;;;;;;23.50;4.47;;;14.20;80.10;;;;;;5009435;28;20033;-89
2023/12/09 11:36:54;;;;;;;24.13;5.95;;;14.20;79.90;;;;;;5009004;28;20060;-92
2023/12/09 11:39:23;;;;;;;24.60;5.40;;;14.20;79.80;;;;;;5005975;28;20132;-89
2023/12/09 11:42:02;;;;;;;24.27;5.75;;;14.20;79.50;;;;;;5008709;28;20093;-94
2023/12/09 11:44:29;;;;;;;26.10;6.20;;;14.30;79.60;;;;;;5009991;28;20517;-94
2023/12/09 11:46:55;;;;;;;24.38;5.72;;;14.30;79.40;;;;;;5009053;28;20044;-96
2023/12/09 11:49:25;;;;;;;22.95;7.32;;;14.30;79.20;;;;;;5015629;28;20034;-91
2023/12/09 11:51:56;;;;;;;28.25;5.70;;;14.30;79.00;;;;;;5012909;28;20049;-93
2023/12/09 11:54:29;;;;;;;25.60;4.93;;;14.30;78.90;;;;;;5012977;28;20038;-86
2023/12/09 11:56:55;;;;;;;19.00;3.92;;;14.30;78.80;;;;;;5005555;28;20049;-90
2023/12/09 11:59:26;;;;;;;17.48;3.75;;;14.20;78.60;;;;;;5014564;28;20138;-83
2023/12/09 12:01:58;;;;;;;22.30;3.85;;;14.30;78.90;;;;;;5021967;28;20041;-86
2023/12/09 12:04:33;;;;;;;20.23;3.97;;;14.30;78.90;;;;;;5016354;28;20107;-86
2023/12/09 12:07:03;;;;;;;14.20;4.55;;;14.40;79.00;;;;;;5001197;28;20056;-85
2023/12/09 12:09:38;;;;;;;18.77;4.88;;;14.60;79.20;;;;;;5027039;28;20069;-88
2023/12/09 12:12:11;;;;;;;15.88;3.58;;;14.70;79.10;;;;;;5025628;28;20034;-87
2023/12/09 12:14:38;;;;;;;26.23;6.03;;;14.80;79.00;;;;;;5021536;28;20034;-86
2023/12/09 12:17:10;;;;;;;35.50;7.63;;;14.90;79.00;;;;;;5005654;28;20153;-88
2023/12/09 12:19:39;;;;;;;45.78;8.57;;;15.00;79.10;;;;;;5029407;28;20042;-85
2023/12/09 12:22:07;;;;;;;37.05;8.93;;;15.10;79.20;;;;;;4991000;28;20145;-90
2023/12/09 12:24:48;;;;;;;69.95;37.15;;;15.20;79.30;;;;;;5026687;28;20022;-84
2023/12/09 12:27:18;;;;;;;62.90;35.33;;;15.30;79.70;;;;;;5025745;28;20128;-86
2023/12/09 12:29:48;;;;;;;49.40;26.67;;;15.50;80.00;;;;;;5021208;28;20154;-85
2023/12/09 12:32:18;;;;;;;39.63;21.20;;;15.60;80.00;;;;;;5004839;28;20061;-87
2023/12/09 12:34:48;;;;;;;39.40;20.40;;;15.70;80.00;;;;;;5028045;28;20037;-85
2023/12/09 12:37:15;;;;;;;29.42;16.80;;;15.80;79.80;;;;;;5028219;28;20044;-85
2023/12/09 12:39:41;;;;;;;32.45;18.30;;;15.90;79.70;;;;;;5032685;28;20030;-87
2023/12/09 12:42:09;;;;;;;33.33;17.88;;;15.90;79.30;;;;;;5033568;28;20030;-87
2023/12/09 12:44:36;;;;;;;29.20;17.15;;;16.00;79.20;;;;;;5036596;28;20037;-85
2023/12/09 12:47:02;;;;;;;30.83;17.45;;;16.10;79.10;;;;;;5030965;28;20038;-84
2023/12/09 12:49:37;;;;;;;39.28;17.42;;;16.10;78.80;;;;;;5008850;28;20089;-87